Time;durP1;ratioP1;P1;durP2;ratioP2;P2;SDS_P1;SDS_P2;PMS_P1;PMS_P2;Temp;Humidity;BMP_temperature;BMP_pressure;BME280_temperature;BME280_humidity;BME280_pressure;Samples;Min_cycle;Max_cycle;Signal;HPM_P1;HPM_P2
2022/05/25 00:00:10;;;;;;;2.83;2.17;;;;;;;11.09;100.00;101170.53;10385077;28;20128;-75
2022/05/25 00:05:11;;;;;;;1.33;1.33;;;;;;;11.05;100.00;101177.38;10400300;28;20033;-75
2022/05/25 00:10:11;;;;;;;1.63;1.45;;;;;;;11.03;100.00;101167.75;10398718;28;20474;-74
2022/05/25 00:15:12;;;;;;;8.50;2.25;;;;;;;11.10;100.00;101174.94;10415497;28;20083;-75
2022/05/25 00:20:12;;;;;;;1.90;1.67;;;;;;;11.15;100.00;101177.06;10416933;28;20041;-74
2022/05/25 00:25:22;;;;;;;4.28;2.30;;;;;;;11.13;100.00;101177.22;10382281;28;20168;-74
2022/05/25 00:30:24;;;;;;;1.88;1.60;;;;;;;11.17;100.00;101185.84;10400148;28;20041;-74
2022/05/25 00:35:25;;;;;;;6.75;2.67;;;;;;;11.14;100.00;101180.81;10414319;28;20472;-75
2022/05/25 00:40:28;;;;;;;5.10;2.28;;;;;;;11.09;100.00;101178.66;10399935;28;20171;-75
2022/05/25 00:45:33;;;;;;;5.72;3.42;;;;;;;11.13;100.00;101187.25;10415423;28;20400;-75
2022/05/25 00:55:53;;;;;;;7.88;2.17;;;;;;;11.11;100.00;101201.00;10415022;28;20042;-75
2022/05/25 01:00:54;;;;;;;3.42;2.45;;;;;;;11.10;100.00;101199.34;10397917;28;20025;-75
2022/05/25 01:06:05;;;;;;;15.63;3.85;;;;;;;11.14;100.00;101199.78;10415916;28;20034;-75
2022/05/25 01:11:24;;;;;;;4.07;3.33;;;;;;;11.08;100.00;101195.13;10398157;28;20033;-75
2022/05/25 01:16:35;;;;;;;4.07;2.65;;;;;;;10.98;100.00;101198.16;10415158;28;20049;-75
2022/05/25 01:22:00;;;;;;;4.82;3.63;;;;;;;10.96;100.00;101196.66;10398486;28;20029;-75
2022/05/25 01:27:33;;;;;;;12.30;5.75;;;;;;;10.89;100.00;101197.44;10415598;28;20030;-75
2022/05/25 01:33:04;;;;;;;10.70;5.65;;;;;;;10.91;100.00;101203.50;10413898;28;20100;-75
2022/05/25 01:38:14;;;;;;;8.68;4.93;;;;;;;10.96;100.00;101208.34;10416842;28;20116;-74
2022/05/25 01:43:18;;;;;;;9.95;6.18;;;;;;;10.98;100.00;101208.16;10422032;28;20105;-74
2022/05/25 01:48:19;;;;;;;11.13;8.55;;;;;;;10.97;100.00;101203.75;10420914;28;20025;-74
2022/05/25 01:53:21;;;;;;;9.98;7.45;;;;;;;10.91;100.00;101210.78;10404438;28;20033;-75
2022/05/25 01:58:21;;;;;;;15.98;9.18;;;;;;;10.93;100.00;101217.69;10404113;28;20204;-75
2022/05/25 02:09:14;;;;;;;11.02;7.55;;;;;;;10.83;100.00;101224.47;10420931;28;20041;-74
2022/05/25 02:14:33;;;;;;;8.68;7.80;;;;;;;10.74;100.00;101221.03;10420408;28;20524;-74
2022/05/25 02:19:50;;;;;;;16.58;9.40;;;;;;;10.71;100.00;101218.69;10421954;28;20032;-75
2022/05/25 02:24:55;;;;;;;;;;;;;;;10.64;100.00;101220.50;10421187;28;20414;-75
2022/05/25 02:30:01;;;;;;;22.15;9.20;;;;;;;10.65;100.00;101223.00;10403883;28;19939;-75
2022/05/25 02:35:01;;;;;;;22.27;10.30;;;;;;;10.61;100.00;101227.13;10403155;28;20056;-75
2022/05/25 02:40:03;;;;;;;18.73;9.95;;;;;;;10.56;100.00;101220.59;10419810;28;20040;-74
2022/05/25 02:45:04;;;;;;;10.70;7.72;;;;;;;10.44;100.00;101223.78;10402852;28;20422;-75
2022/05/25 02:50:05;;;;;;;20.15;11.85;;;;;;;10.36;100.00;101234.72;10402050;28;20416;-75
2022/05/25 02:55:06;;;;;;;14.30;9.77;;;;;;;10.33;100.00;101243.22;10418620;28;20042;-75
2022/05/25 03:00:07;;;;;;;12.30;9.13;;;;;;;10.29;100.00;101236.50;10420830;28;20068;-75
2022/05/25 03:05:08;;;;;;;14.93;10.35;;;;;;;10.35;100.00;101245.75;10419186;28;20030;-75
2022/05/25 03:10:09;;;;;;;19.33;10.70;;;;;;;10.33;100.00;101248.63;10419137;28;20071;-75
2022/05/25 03:15:10;;;;;;;13.68;10.93;;;;;;;10.32;100.00;101252.38;10418385;28;20082;-75
2022/05/25 03:20:11;;;;;;;13.15;10.75;;;;;;;10.36;100.00;101266.34;10418691;28;20392;-75
2022/05/25 03:25:13;;;;;;;24.13;10.02;;;;;;;10.35;100.00;101276.34;10384262;28;20034;-75
2022/05/25 03:30:15;;;;;;;17.45;11.20;;;;;;;10.37;100.00;101279.72;10400597;28;20119;-74
2022/05/25 03:35:15;;;;;;;13.40;9.45;;;;;;;10.41;100.00;101269.34;10417811;28;20084;-75
2022/05/25 03:40:15;;;;;;;16.17;12.25;;;;;;;10.57;100.00;101277.28;10401883;28;20057;-74
2022/05/25 03:45:16;;;;;;;18.23;11.52;;;;;;;10.64;100.00;101286.31;10419183;28;20064;-75
2022/05/25 03:50:18;;;;;;;19.45;13.77;;;;;;;10.69;100.00;101274.94;10399820;28;20030;-75
2022/05/25 03:55:18;;;;;;;15.88;11.93;;;;;;;10.74;100.00;101271.66;10420981;28;20037;-74
2022/05/25 04:00:19;;;;;;;15.18;12.27;;;;;;;10.82;100.00;101266.97;10398541;28;20037;-74
2022/05/25 04:05:21;;;;;;;19.50;14.55;;;;;;;11.06;100.00;101281.19;10418032;28;20091;-75
2022/05/25 04:10:21;;;;;;;21.60;13.73;;;;;;;11.24;100.00;101281.63;10418701;28;20064;-75
2022/05/25 04:15:24;;;;;;;27.40;16.42;;;;;;;11.37;100.00;101281.75;10400271;28;20037;-74
2022/05/25 04:20:24;;;;;;;27.25;16.55;;;;;;;11.55;100.00;101284.00;10399602;28;20025;-75
2022/05/25 04:25:25;;;;;;;21.20;16.58;;;;;;;11.66;100.00;101282.63;10398283;28;20029;-74
2022/05/25 04:30:27;;;;;;;27.33;15.55;;;;;;;11.75;100.00;101283.34;10398462;28;20033;-74
2022/05/25 04:35:27;;;;;;;25.55;14.65;;;;;;;11.93;100.00;101289.13;10418164;28;20045;-75
2022/05/25 04:40:39;;;;;;;26.38;14.90;;;;;;;11.96;100.00;101279.78;10416695;28;20472;-75
2022/05/25 04:45:41;;;;;;;23.02;16.20;;;;;;;11.98;100.00;101277.72;10383855;28;20030;-74
2022/05/25 04:50:42;;;;;;;17.67;14.93;;;;;;;12.10;100.00;101268.81;10416893;28;20034;-74
2022/05/25 05:01:02;;;;;;;20.48;14.68;;;;;;;12.88;100.00;101278.63;10414649;28;20037;-75
2022/05/25 05:06:04;;;;;;;13.20;11.50;;;;;;;13.09;100.00;101269.50;10415096;28;20083;-75
2022/05/25 05:11:12;;;;;;;19.63;13.63;;;;;;;13.08;100.00;101275.97;10414859;28;20061;-75
2022/05/25 05:16:14;;;;;;;25.17;13.57;;;;;;;13.20;100.00;101279.75;10423443;28;20483;-74
2022/05/25 05:21:15;;;;;;;29.65;14.25;;;;;;;13.37;100.00;101280.25;10423058;28;20384;-75
2022/05/25 05:26:15;;;;;;;27.00;13.82;;;;;;;13.29;100.00;101280.44;10405974;28;20041;-75
2022/05/25 05:31:15;;;;;;;18.15;13.38;;;;;;;13.91;100.00;101284.66;10422289;28;20184;-75
2022/05/25 05:36:24;;;;;;;26.75;13.75;;;;;;;14.17;100.00;101290.13;10422607;28;20120;-74
2022/05/25 05:41:29;;;;;;;30.95;12.48;;;;;;;13.95;100.00;101292.22;10405554;28;20049;-74
2022/05/25 05:46:29;;;;;;;17.88;12.40;;;;;;;14.05;100.00;101286.34;10421201;28;20105;-74
2022/05/25 05:51:29;;;;;;;24.13;13.48;;;;;;;14.13;100.00;101296.19;10421846;28;20033;-75
2022/05/25 05:56:32;;;;;;;25.83;14.90;;;;;;;13.99;100.00;101302.69;10421387;28;20030;-75
2022/05/25 06:01:32;;;;;;;19.05;12.65;;;;;;;14.02;100.00;101308.56;10403152;28;20495;-74
2022/05/25 06:06:33;;;;;;;23.65;13.98;;;;;;;14.05;100.00;101316.31;10422250;28;20048;-75
2022/05/25 06:11:38;;;;;;;17.85;13.07;;;;;;;13.94;100.00;101311.47;10420906;28;20064;-74
2022/05/25 06:22:00;;;;;;;23.52;14.50;;;;;;;14.68;100.00;101310.38;10419734;28;20472;-74
2022/05/25 06:27:01;;;;;;;23.52;13.93;;;;;;;15.23;100.00;101318.94;10419454;28;20069;-75
2022/05/25 06:32:01;;;;;;;17.45;10.95;;;;;;;15.34;100.00;101323.69;10402683;28;20100;-74
2022/05/25 06:37:02;;;;;;;16.98;10.43;;;;;;;15.79;100.00;101326.38;10420215;28;20489;-74
2022/05/25 06:42:03;;;;;;;19.38;11.02;;;;;;;16.54;100.00;101328.22;10419859;28;20026;-74
2022/05/25 06:47:04;;;;;;;16.30;10.27;;;;;;;16.21;100.00;101328.56;10420205;28;20120;-74
2022/05/25 06:52:10;;;;;;;14.45;9.18;;;;;;;15.85;100.00;101329.25;10419172;28;20037;-74
2022/05/25 06:57:12;;;;;;;14.43;10.67;;;;;;;15.80;100.00;101338.13;10402408;28;20034;-75
2022/05/25 07:02:12;;;;;;;11.88;9.35;;;;;;;15.94;100.00;101339.69;10418071;28;20730;-75
2022/05/25 07:07:12;;;;;;;18.15;9.50;;;;;;;16.72;97.32;101346.53;10419029;28;20042;-75
2022/05/25 07:12:13;;;;;;;12.10;9.85;;;;;;;16.68;96.26;101343.41;10419185;28;20033;-75
2022/05/25 07:17:13;;;;;;;15.45;9.05;;;;;;;17.95;92.06;101345.31;10419136;28;20037;-75
2022/05/25 07:22:14;;;;;;;14.90;8.70;;;;;;;19.24;86.23;101342.50;10417776;28;20421;-75
2022/05/25 07:27:14;;;;;;;14.52;7.95;;;;;;;18.52;91.29;101351.06;10400622;28;20060;-75
2022/05/25 07:32:15;;;;;;;12.85;7.68;;;;;;;19.40;84.93;101349.13;10418207;28;20049;-75
2022/05/25 07:37:18;;;;;;;6.85;6.22;;;;;;;20.58;84.75;101351.13;10415743;28;20080;-75
2022/05/25 07:42:19;;;;;;;9.80;6.72;;;;;;;19.64;79.77;101347.13;10416020;28;20067;-75
2022/05/25 07:47:19;;;;;;;7.60;4.78;;;;;;;19.73;82.08;101353.88;10417651;28;20034;-75
2022/05/25 07:52:20;;;;;;;6.75;5.10;;;;;;;21.75;77.07;101346.22;10417600;28;20050;-75
2022/05/25 07:57:21;;;;;;;3.35;3.15;;;;;;;21.55;68.09;101360.63;10399473;28;20104;-75
2022/05/25 08:07:49;;;;;;;4.25;3.85;;;;;;;20.56;69.90;101364.31;10401770;28;20033;-74
2022/05/25 08:12:49;;;;;;;12.32;3.83;;;;;;;20.36;71.51;101362.06;10416065;28;20041;-75
2022/05/25 08:17:50;;;;;;;5.03;3.25;;;;;;;22.14;67.09;101368.88;10415381;28;20088;-75
2022/05/25 08:22:50;;;;;;;6.82;3.60;;;;;;;23.25;69.15;101353.28;10415667;28;20465;-76
2022/05/25 08:27:50;;;;;;;2.55;2.35;;;;;;;23.11;61.21;101368.72;10416189;28;20384;-75
2022/05/25 08:32:51;;;;;;;9.07;3.25;;;;;;;22.02;64.12;101352.53;10417136;28;20065;-75
2022/05/25 08:37:51;;;;;;;2.53;1.60;;;;;;;19.59;64.67;101360.75;10399449;28;20061;-75
2022/05/25 08:43:15;;;;;;;3.67;1.75;;;;;;;19.56;62.92;101366.72;10414984;28;20045;-75
2022/05/25 08:48:16;;;;;;;6.63;2.10;;;;;;;21.63;57.17;101360.16;10396489;28;20017;-75
2022/05/25 08:53:16;;;;;;;4.25;1.67;;;;;;;22.00;56.09;101351.94;10413899;28;20424;-75
2022/05/25 08:58:17;;;;;;;1.70;1.60;;;;;;;22.96;51.90;101355.66;10382297;28;20100;-75
2022/05/25 09:03:45;;;;;;;4.13;2.03;;;;;;;23.41;53.05;101366.03;10397066;28;20044;-75
2022/05/25 09:08:55;;;;;;;3.92;1.95;;;;;;;23.21;55.73;101366.81;10414990;28;20026;-75
2022/05/25 09:14:00;;;;;;;1.65;1.50;;;;;;;21.27;53.40;101370.75;10397264;28;20038;-75
2022/05/25 09:19:10;;;;;;;2.88;1.80;;;;;;;20.96;52.04;101385.22;10415041;28;20033;-75
2022/05/25 09:24:15;;;;;;;1.77;1.67;;;;;;;21.83;54.64;101396.19;10397221;28;20029;-75
2022/05/25 09:29:15;;;;;;;6.45;2.83;;;;;;;23.02;46.39;101384.97;10397545;28;20025;-75
2022/05/25 09:34:48;;;;;;;1.42;1.33;;;;;;;22.93;47.45;101398.47;10414455;28;20109;-75
2022/05/25 09:39:48;;;;;;;3.22;2.38;;;;;;;23.74;43.80;101393.53;10407425;28;20096;-75
2022/05/25 09:44:52;;;;;;;1.85;1.30;;;;;;;23.49;43.54;101399.81;10397462;28;20527;-75
2022/05/25 09:49:54;;;;;;;6.72;1.90;;;;;;;23.17;43.32;101406.31;10397708;28;20033;-75
2022/05/25 09:55:18;;;;;;;1.38;1.13;;;;;;;23.66;44.12;101419.75;10414192;28;20381;-75
2022/05/25 10:00:32;;;;;;;1.67;1.58;;;;;;;24.01;44.91;101418.19;10416491;28;20118;-76
2022/05/25 10:05:44;;;;;;;1.05;1.05;;;;;;;22.84;44.57;101427.66;10423082;28;20040;-75
2022/05/25 10:10:55;;;;;;;3.50;1.63;;;;;;;21.94;47.35;101421.13;10404052;28;20069;-75
2022/05/25 10:15:56;;;;;;;1.70;1.58;;;;;;;23.23;47.62;101412.69;10421696;28;20029;-74
2022/05/25 10:20:56;;;;;;;5.70;1.17;;;;;;;23.77;42.32;101415.09;10421717;28;20430;-75
2022/05/25 10:26:19;;;;;;;1.42;1.27;;;;;;;24.77;43.67;101417.34;10402495;28;20129;-75
2022/05/25 10:36:57;;;;;;;2.97;1.52;;;;;;;24.67;42.44;101417.38;10419733;28;20049;-75
2022/05/25 10:42:04;;;;;;;1.20;1.08;;;;;;;25.16;43.24;101431.41;10419907;28;20132;-75
2022/05/25 10:47:05;;;;;;;1.17;1.10;;;;;;;24.83;41.65;101419.84;10419714;28;20389;-75
2022/05/25 10:52:12;;;;;;;4.13;1.50;;;;;;;24.05;43.47;101414.59;10402475;28;20034;-75
2022/05/25 10:57:36;;;;;;;6.38;1.50;;;;;;;24.63;42.41;101411.53;10419509;28;20065;-75
2022/05/25 11:03:00;;;;;;;2.20;2.03;;;;;;;23.80;44.72;101404.34;10419225;28;20041;-75
2022/05/25 11:08:12;;;;;;;1.25;1.13;;;;;;;23.89;41.10;101393.53;10419232;28;20064;-76
2022/05/25 11:13:27;;;;;;;4.43;1.70;;;;;;;23.33;41.47;101408.03;10401249;28;20167;-75
2022/05/25 11:18:58;;;;;;;1.30;1.20;;;;;;;23.90;39.74;101389.69;10417946;28;20117;-75
2022/05/25 11:24:07;;;;;;;2.80;1.58;;;;;;;24.70;38.48;101391.91;10418285;28;20029;-75
2022/05/25 11:29:36;;;;;;;1.40;1.30;;;;;;;24.05;40.19;101399.94;10418568;28;20136;-75
2022/05/25 11:34:57;;;;;;;4.97;1.23;;;;;;;23.92;39.73;101381.09;10417642;28;20053;-75
2022/05/25 11:40:06;;;;;;;3.90;1.13;;;;;;;23.23;40.33;101374.84;10418331;28;20061;-75
2022/05/25 11:45:31;;;;;;;1.48;1.27;;;;;;;23.58;40.56;101367.75;10417710;28;20029;-75
2022/05/25 11:50:44;;;;;;;4.38;1.60;;;;;;;22.86;40.55;101383.22;10417775;28;20033;-75
2022/05/25 11:56:06;;;;;;;2.00;1.75;;;;;;;22.58;45.02;101378.91;10417154;28;20108;-75
2022/05/25 12:01:29;;;;;;;2.17;1.98;;;;;;;22.21;45.30;101385.28;10417206;28;20034;-75
2022/05/25 12:06:35;;;;;;;1.75;1.58;;;;;;;22.01;47.17;101385.88;10415708;28;20037;-75
2022/05/25 12:11:48;;;;;;;2.28;1.63;;;;;;;21.04;49.30;101398.56;10416707;28;20377;-75
2022/05/25 12:16:48;;;;;;;4.13;2.15;;;;;;;20.79;51.72;101404.53;10415643;28;20033;-75
2022/05/25 12:22:00;;;;;;;20.75;2.78;;;;;;;20.56;51.94;101403.66;10397856;28;20045;-75
2022/05/25 12:27:01;;;;;;;9.43;1.90;;;;;;;20.35;54.35;101390.63;10400031;28;20036;-75
2022/05/25 12:32:02;;;;;;;5.40;3.13;;;;;;;20.60;53.07;101393.00;10397924;28;20045;-75
2022/05/25 12:37:03;;;;;;;6.63;3.53;;;;;;;20.45;52.54;101401.81;10399179;28;20034;-75
2022/05/25 12:42:24;;;;;;;8.25;2.50;;;;;;;20.39;50.34;101408.34;10399812;28;20044;-75
2022/05/25 12:52:43;;;;;;;3.28;2.45;;;;;;;20.30;51.30;101401.59;10416026;28;20033;-76
2022/05/25 12:57:50;;;;;;;2.25;2.05;;;;;;;20.33;49.51;101407.41;10415269;28;20033;-75
2022/05/25 13:02:50;;;;;;;4.72;2.28;;;;;;;20.64;49.59;101392.25;10398011;28;20040;-75
2022/05/25 13:07:52;;;;;;;8.23;1.80;;;;;;;21.37;48.57;101400.38;10397917;28;20106;-75
2022/05/25 13:12:56;;;;;;;1.15;1.15;;;;;;;21.67;47.24;101396.31;10415699;28;20449;-75
2022/05/25 13:17:57;;;;;;;3.05;1.40;;;;;;;21.47;47.34;101397.72;10416020;28;20113;-76
2022/05/25 13:22:59;;;;;;;7.03;1.85;;;;;;;21.00;46.35;101398.25;10397686;28;20033;-75
2022/05/25 13:28:09;;;;;;;5.00;1.88;;;;;;;20.48;47.52;101408.72;10398115;28;20103;-75
2022/05/25 13:33:19;;;;;;;1.40;1.30;;;;;;;20.68;47.60;101414.59;10415865;28;20046;-75
2022/05/25 13:38:21;;;;;;;3.92;2.00;;;;;;;20.56;47.65;101411.09;10423691;28;20048;-75
2022/05/25 13:43:36;;;;;;;3.20;1.92;;;;;;;20.07;51.46;101400.66;10423107;28;20021;-75
2022/05/25 13:48:36;;;;;;;1.80;1.63;;;;;;;19.92;53.46;101401.22;10421046;28;20041;-75
2022/05/25 13:53:37;;;;;;;7.60;2.33;;;;;;;19.79;54.17;101409.78;10423430;28;20380;-76
2022/05/25 13:58:43;;;;;;;8.43;1.65;;;;;;;19.59;53.54;101401.09;10420996;28;20049;-75
2022/05/25 14:03:48;;;;;;;2.30;1.73;;;;;;;19.88;53.35;101397.31;10422450;28;20037;-75
2022/05/25 14:14:22;;;;;;;3.97;2.33;;;;;;;19.82;53.96;101401.03;10407041;28;20041;-76
2022/05/25 14:19:28;;;;;;;2.58;1.13;;;;;;;19.90;52.44;101397.03;10420155;28;20025;-76
2022/05/25 14:24:29;;;;;;;4.07;1.67;;;;;;;19.79;52.34;101408.94;10421128;28;20052;-76
2022/05/25 14:29:30;;;;;;;12.27;2.28;;;;;;;19.13;53.28;101401.00;10420935;28;20037;-75
2022/05/25 14:34:45;;;;;;;8.40;1.65;;;;;;;18.67;53.98;101402.72;10404131;28;20401;-76
2022/05/25 14:39:46;;;;;;;6.68;2.00;;;;;;;18.25;54.98;101416.53;10386901;28;20032;-76
2022/05/25 14:44:51;;;;;;;4.75;2.20;;;;;;;18.16;55.98;101409.72;10403295;28;20041;-76
2022/05/25 14:49:59;;;;;;;4.50;1.98;;;;;;;18.21;57.69;101414.47;10420052;28;20034;-76
2022/05/25 14:55:10;;;;;;;2.75;2.33;;;;;;;18.23;58.11;101424.16;10402602;28;20029;-76
2022/05/25 15:00:14;;;;;;;2.72;1.55;;;;;;;17.87;59.96;101417.75;10419727;28;20030;-76
2022/05/25 15:05:44;;;;;;;10.82;1.85;;;;;;;17.69;61.17;101406.81;10404198;28;20098;-75
2022/05/25 15:10:44;;;;;;;3.22;1.75;;;;;;;17.16;63.08;101418.44;10418812;28;20136;-75
2022/05/25 15:21:18;;;;;;;2.22;1.55;;;;;;;16.90;69.17;101422.31;10417893;28;20461;-75
2022/05/25 15:26:24;;;;;;;3.35;2.40;;;;;;;16.17;74.04;101425.66;10418674;28;20445;-75
2022/05/25 15:31:25;;;;;;;10.98;2.20;;;;;;;15.92;72.89;101429.22;10417333;28;20079;-76
2022/05/25 15:36:25;;;;;;;7.32;1.83;;;;;;;16.19;71.39;101424.41;10419786;28;20064;-75
2022/05/25 15:41:26;;;;;;;10.50;2.60;;;;;;;16.51;71.41;101421.63;10400574;28;20099;-76
2022/05/25 15:46:26;;;;;;;7.13;2.28;;;;;;;16.41;72.59;101422.13;10418028;28;20041;-75
2022/05/25 15:51:31;;;;;;;3.53;2.42;;;;;;;16.40;74.75;101423.19;10417144;28;20462;-75
2022/05/25 15:56:32;;;;;;;18.80;3.38;;;;;;;16.43;75.45;101419.16;10398823;28;20030;-75
2022/05/25 16:01:33;;;;;;;8.95;1.63;;;;;;;16.39;75.36;101416.03;10418293;28;20033;-76
2022/05/25 16:06:33;;;;;;;5.78;2.42;;;;;;;16.28;76.63;101417.59;10415748;28;20043;-75
2022/05/25 16:11:36;;;;;;;3.75;2.35;;;;;;;16.23;77.24;101417.41;10416896;28;20037;-75
2022/05/25 16:16:37;;;;;;;13.98;3.38;;;;;;;16.20;78.15;101414.31;10415498;28;20042;-75
2022/05/25 16:21:38;;;;;;;6.93;2.28;;;;;;;16.23;78.11;101422.06;10416576;28;20065;-75
2022/05/25 16:26:40;;;;;;;9.90;2.75;;;;;;;16.23;79.37;101422.88;10398957;28;20072;-75
2022/05/25 16:31:41;;;;;;;3.63;2.58;;;;;;;16.26;80.10;101427.06;10416273;28;20025;-75
2022/05/25 16:36:41;;;;;;;3.05;1.50;;;;;;;16.03;81.59;101408.56;10417095;28;20037;-75
2022/05/25 16:41:43;;;;;;;6.05;2.30;;;;;;;15.86;82.67;101424.63;10416089;28;20033;-75
2022/05/25 16:46:44;;;;;;;7.60;2.65;;;;;;;15.80;84.59;101426.34;10399618;28;20025;-76
2022/05/25 16:51:45;;;;;;;3.67;2.20;;;;;;;15.84;85.28;101424.00;10416540;28;20025;-75
2022/05/25 16:56:45;;;;;;;10.05;2.55;;;;;;;15.60;87.34;101436.50;10398661;28;20033;-76
2022/05/25 17:01:46;;;;;;;12.43;2.50;;;;;;;15.42;89.28;101404.47;10381685;28;20413;-75
2022/05/25 17:06:46;;;;;;;5.28;2.03;;;;;;;15.31;90.21;101435.16;10415861;28;20061;-76
2022/05/25 17:11:47;;;;;;;7.40;2.13;;;;;;;15.14;93.85;101445.72;10424233;28;20036;-75
2022/05/25 17:16:47;;;;;;;7.15;2.55;;;;;;;14.96;96.41;101446.38;10424539;28;20051;-75
2022/05/25 17:21:49;;;;;;;5.20;2.92;;;;;;;14.70;100.00;101441.81;10423841;28;20041;-75
2022/05/25 17:26:49;;;;;;;7.15;2.47;;;;;;;14.60;100.00;101452.31;10422660;28;20499;-75
2022/05/25 17:31:51;;;;;;;8.52;2.80;;;;;;;14.68;100.00;101443.06;10423671;28;20128;-75
2022/05/25 17:42:10;;;;;;;9.68;2.30;;;;;;;14.25;100.00;101451.66;10422460;28;20142;-75
2022/05/25 17:47:10;;;;;;;5.03;1.63;;;;;;;14.09;100.00;101453.72;10405695;28;20049;-75
2022/05/25 17:52:11;;;;;;;6.45;2.15;;;;;;;14.01;100.00;101451.22;10421783;28;20037;-75
2022/05/25 17:57:11;;;;;;;3.17;2.67;;;;;;;14.08;100.00;101460.22;10404622;28;20182;-75
2022/05/25 18:02:12;;;;;;;9.48;2.90;;;;;;;14.15;100.00;101460.22;10422907;28;20040;-75
2022/05/25 18:07:15;;;;;;;4.03;2.38;;;;;;;14.21;100.00;101466.75;10421035;28;20037;-75
2022/05/25 18:12:15;;;;;;;5.93;3.28;;;;;;;14.24;100.00;101459.00;10405429;28;20032;-75
2022/05/25 18:17:15;;;;;;;7.57;3.70;;;;;;;14.19;100.00;101451.41;10387481;28;20508;-75
2022/05/25 18:22:16;;;;;;;8.40;3.90;;;;;;;14.31;100.00;101469.88;10404582;28;20037;-75
2022/05/25 18:27:16;;;;;;;16.25;3.72;;;;;;;14.35;100.00;101468.41;10404580;28;20025;-75
2022/05/25 18:32:17;;;;;;;5.95;3.63;;;;;;;14.47;100.00;101460.47;10420872;28;20057;-75
2022/05/25 18:37:17;;;;;;;10.48;3.80;;;;;;;14.43;100.00;101468.22;10403661;28;20037;-75
2022/05/25 18:42:18;;;;;;;17.02;4.85;;;;;;;14.50;100.00;101463.59;10420799;28;20029;-76
2022/05/25 18:47:19;;;;;;;19.98;4.55;;;;;;;14.70;100.00;101458.16;10420668;28;20432;-76
2022/05/25 18:52:20;;;;;;;15.85;4.53;;;;;;;14.86;100.00;101467.81;10402313;28;20365;-76
2022/05/25 18:57:20;;;;;;;16.45;3.40;;;;;;;14.85;100.00;101466.97;10420325;28;20041;-77
2022/05/25 19:02:21;;;;;;;14.68;4.10;;;;;;;15.04;100.00;101470.72;10419757;28;20465;-75
2022/05/25 19:07:21;;;;;;;9.98;3.42;;;;;;;15.08;100.00;101468.38;10401938;28;20140;-76
2022/05/25 19:12:22;;;;;;;20.55;3.85;;;;;;;15.14;100.00;101469.44;10420794;28;20068;-76
2022/05/25 19:17:25;;;;;;;17.48;3.35;;;;;;;15.22;100.00;101471.91;10421151;28;20048;-76
2022/05/25 19:22:31;;;;;;;14.15;3.92;;;;;;;15.24;100.00;101475.28;10419870;28;20076;-76
2022/05/25 19:27:32;;;;;;;3.50;2.92;;;;;;;15.15;100.00;101477.38;10417153;28;20108;-76
2022/05/25 19:32:33;;;;;;;6.75;2.30;;;;;;;15.17;100.00;101482.66;10401605;28;20140;-75
2022/05/25 19:37:33;;;;;;;7.55;3.35;;;;;;;15.25;100.00;101496.03;10419588;28;20037;-76
2022/05/25 19:42:37;;;;;;;7.15;3.53;;;;;;;15.22;100.00;101504.66;10401637;28;20026;-77
2022/05/25 19:47:38;;;;;;;6.70;2.88;;;;;;;15.13;100.00;101506.78;10400500;28;20026;-76
2022/05/25 19:52:38;;;;;;;5.85;2.78;;;;;;;15.19;100.00;101510.53;10400225;28;20067;-75
2022/05/25 19:57:41;;;;;;;8.25;3.30;;;;;;;15.10;100.00;101513.50;10417339;28;20026;-76
2022/05/25 20:02:41;;;;;;;12.15;4.07;;;;;;;15.13;100.00;101522.31;10383497;28;20030;-76
2022/05/25 20:07:42;;;;;;;14.32;5.70;;;;;;;15.11;100.00;101523.34;10417792;28;20441;-76
2022/05/25 20:12:42;;;;;;;14.65;3.75;;;;;;;15.13;100.00;101528.63;10398887;28;20049;-76
2022/05/25 20:17:43;;;;;;;8.95;4.10;;;;;;;15.21;100.00;101536.56;10417074;28;20045;-76
2022/05/25 20:22:43;;;;;;;15.15;4.10;;;;;;;15.23;100.00;101548.09;10382531;28;20500;-76
2022/05/25 20:27:44;;;;;;;7.93;3.08;;;;;;;15.21;100.00;101552.09;10417013;28;20038;-77
2022/05/25 20:32:44;;;;;;;15.38;4.22;;;;;;;15.11;100.00;101553.38;10415565;28;20137;-76
2022/05/25 20:37:46;;;;;;;18.02;5.18;;;;;;;15.20;100.00;101545.81;10399079;28;20029;-76
2022/05/25 20:42:47;;;;;;;10.15;4.13;;;;;;;15.14;100.00;101557.56;10414918;28;20103;-76
2022/05/25 20:47:47;;;;;;;22.27;5.55;;;;;;;15.09;100.00;101549.16;10415855;28;20370;-76
2022/05/25 20:52:48;;;;;;;19.02;4.50;;;;;;;15.09;100.00;101552.75;10417612;28;20057;-75
2022/05/25 20:57:50;;;;;;;19.27;5.43;;;;;;;15.02;100.00;101562.81;10416166;28;20041;-76
2022/05/25 21:02:50;;;;;;;22.88;5.45;;;;;;;15.07;100.00;101554.84;10417094;28;20057;-76
2022/05/25 21:07:51;;;;;;;9.18;4.47;;;;;;;15.15;100.00;101563.84;10415050;28;20045;-76
2022/05/25 21:12:52;;;;;;;12.45;4.90;;;;;;;15.25;100.00;101565.13;10415493;28;20038;-75
2022/05/25 21:17:52;;;;;;;19.63;5.00;;;;;;;15.16;100.00;101576.47;10397934;28;20042;-76
2022/05/25 21:22:54;;;;;;;19.33;5.43;;;;;;;15.22;100.00;101570.13;10415930;28;20441;-76
2022/05/25 21:27:55;;;;;;;10.38;4.60;;;;;;;15.25;100.00;101569.72;10414351;28;20492;-76
2022/05/25 21:32:56;;;;;;;14.60;3.88;;;;;;;15.25;100.00;101581.50;10415282;28;20058;-76
2022/05/25 21:37:57;;;;;;;13.15;5.70;;;;;;;15.18;100.00;101575.19;10416221;28;20045;-76
2022/05/25 21:42:58;;;;;;;15.80;5.13;;;;;;;15.18;100.00;101585.25;10399146;28;20061;-76
2022/05/25 21:53:17;;;;;;;20.02;6.25;;;;;;;15.06;100.00;101587.78;10414478;28;20029;-76
2022/05/25 21:58:18;;;;;;;21.25;6.45;;;;;;;15.12;100.00;101592.38;10421212;28;20033;-76
2022/05/25 22:03:18;;;;;;;10.38;5.22;;;;;;;15.12;100.00;101589.66;10421802;28;20033;-76
2022/05/25 22:08:19;;;;;;;19.00;5.30;;;;;;;15.09;100.00;101587.34;10420989;28;20034;-76
2022/05/25 22:13:20;;;;;;;16.48;6.25;;;;;;;15.02;100.00;101594.72;10421638;28;20107;-76
2022/05/25 22:18:21;;;;;;;16.50;6.07;;;;;;;15.04;100.00;101589.91;10403886;28;20033;-76
2022/05/25 22:23:21;;;;;;;15.75;6.78;;;;;;;15.07;100.00;101609.41;10421415;28;20447;-76
2022/05/25 22:28:21;;;;;;;19.27;6.35;;;;;;;15.03;100.00;101610.88;10421626;28;20048;-75
2022/05/25 22:33:22;;;;;;;29.15;8.05;;;;;;;15.04;100.00;101604.38;10404382;28;20501;-76
2022/05/25 22:38:22;;;;;;;25.30;6.13;;;;;;;14.96;100.00;101606.44;10421532;28;20046;-76
2022/05/25 22:43:22;;;;;;;18.35;6.15;;;;;;;15.01;100.00;101620.31;10421710;28;20034;-76
2022/05/25 22:48:23;;;;;;;14.48;6.00;;;;;;;15.01;100.00;101615.69;10420531;28;20040;-75
2022/05/25 22:53:23;;;;;;;15.55;6.43;;;;;;;14.97;100.00;101622.63;10421536;28;20038;-75
2022/05/25 22:58:24;;;;;;;26.45;8.57;;;;;;;15.04;100.00;101617.16;10420571;28;20453;-75
2022/05/25 23:03:25;;;;;;;16.85;7.82;;;;;;;14.93;100.00;101623.22;10420882;28;20116;-76
2022/05/25 23:08:25;;;;;;;27.95;6.90;;;;;;;14.76;100.00;101620.06;10401598;28;20488;-76
2022/05/25 23:13:26;;;;;;;22.70;8.95;;;;;;;14.63;100.00;101627.19;10419980;28;20041;-75
2022/05/25 23:18:26;;;;;;;29.38;7.70;;;;;;;14.50;100.00;101635.31;10417595;28;20451;-76
2022/05/25 23:23:26;;;;;;;18.90;6.97;;;;;;;14.49;100.00;101627.34;10419648;28;20029;-76
2022/05/25 23:33:46;;;;;;;22.27;7.20;;;;;;;14.41;100.00;101633.81;10418564;28;20045;-76
2022/05/25 23:38:46;;;;;;;41.47;8.45;;;;;;;14.54;100.00;101646.66;10419744;28;20045;-75
2022/05/25 23:43:46;;;;;;;21.83;7.47;;;;;;;14.62;100.00;101638.31;10400706;28;20029;-76
2022/05/25 23:48:47;;;;;;;31.63;8.60;;;;;;;14.63;100.00;101648.16;10416213;28;20065;-76
2022/05/25 23:53:48;;;;;;;28.38;7.53;;;;;;;14.73;100.00;101642.31;10400309;28;20449;-76
2022/05/25 23:58:48;;;;;;;22.58;6.25;;;;;;;14.68;100.00;101651.13;10384055;28;20100;-75
